createdAt,value
2023-05-13T16:19:11.460Z,6.30
2023-05-13T16:19:22.733Z,6.30
2023-05-13T16:19:32.867Z,6.40
2023-05-13T16:19:42.979Z,6.00
2023-05-13T16:19:52.840Z,6.20
2023-05-13T16:20:03.079Z,7.20
2023-05-13T16:20:13.224Z,8.70
2023-05-13T16:20:23.537Z,8.90
2023-05-13T16:20:33.301Z,8.10
2023-05-13T16:20:43.477Z,6.50
2023-05-13T16:20:54.164Z,6.20
2023-05-13T16:21:03.585Z,6.20
2023-05-13T16:21:13.966Z,6.30
2023-05-13T16:21:24.068Z,6.10
2023-05-13T16:21:34.169Z,5.90
2023-05-13T16:21:44.128Z,5.40
2023-05-13T16:21:55.235Z,5.40
2023-05-13T16:22:04.414Z,5.90
2023-05-13T16:22:14.637Z,6.60
2023-05-13T16:22:25.161Z,7.00
2023-05-13T16:22:34.707Z,7.00
2023-05-13T16:22:44.782Z,7.10
2023-05-13T16:23:05.156Z,6.90
2023-05-13T16:23:15.753Z,6.80
2023-05-13T16:23:25.448Z,6.50
2023-05-13T16:23:35.516Z,6.50
2023-05-13T16:23:45.867Z,5.60
2023-05-13T16:23:55.711Z,5.70
2023-05-13T16:24:05.978Z,5.30
2023-05-13T16:24:16.034Z,5.50
2023-05-13T16:24:26.271Z,5.40
2023-05-13T16:24:36.265Z,15.60
2023-05-13T16:24:46.321Z,20.40
2023-05-13T16:24:56.472Z,25.00
2023-05-13T16:25:06.563Z,16.70
2023-05-13T16:25:16.702Z,12.80
2023-05-13T16:25:26.973Z,7.80
2023-05-13T16:25:36.903Z,6.10
2023-05-13T16:25:47.209Z,5.30
2023-05-13T16:25:57.285Z,5.00
2023-05-13T16:26:07.477Z,5.00
2023-05-13T16:26:17.556Z,4.70
2023-05-13T16:26:27.735Z,5.40
2023-05-13T16:26:37.982Z,5.60
2023-05-13T16:26:47.898Z,5.90
2023-05-13T16:26:58.114Z,5.80
2023-05-13T16:27:08.245Z,5.80
2023-05-13T16:27:18.369Z,7.40
2023-05-13T16:27:29.155Z,9.50
2023-05-13T16:27:38.577Z,12.20
2023-05-13T16:27:48.883Z,12.10
2023-05-13T16:27:58.789Z,10.10
2023-05-13T16:28:08.886Z,7.70
2023-05-13T16:28:19.162Z,6.10
2023-05-13T16:28:29.893Z,6.10
2023-05-13T16:28:40.149Z,7.00
2023-05-13T16:28:51.534Z,7.60
2023-05-13T16:28:59.500Z,7.40
2023-05-13T16:29:09.545Z,6.60
2023-05-13T16:29:20.237Z,6.10
2023-05-13T16:29:39.932Z,5.80
2023-05-13T16:29:50.837Z,5.30
2023-05-13T16:30:00.102Z,4.90
2023-05-13T16:30:10.250Z,4.70
2023-05-13T16:30:20.498Z,4.80
2023-05-13T16:30:30.550Z,5.40
2023-05-13T16:30:41.278Z,5.50
2023-05-13T16:31:00.892Z,6.40
2023-05-13T16:31:10.849Z,6.50
2023-05-13T16:31:20.986Z,6.00
2023-05-13T16:31:31.233Z,6.30
2023-05-13T16:31:41.307Z,6.50
2023-05-13T16:31:51.541Z,6.60
2023-05-13T16:32:01.652Z,6.10
2023-05-13T16:32:11.647Z,5.60
2023-05-13T16:32:22.934Z,5.10
2023-05-13T16:32:32.062Z,4.70
2023-05-13T16:32:42.047Z,4.60
2023-05-13T16:32:52.945Z,5.00
2023-05-13T16:33:02.692Z,5.00
2023-05-13T16:33:12.309Z,5.00
2023-05-13T16:33:33.249Z,4.60
2023-05-13T16:33:42.631Z,4.80
2023-05-13T16:33:52.836Z,4.60
2023-05-13T16:34:02.914Z,4.50
2023-05-13T16:34:12.939Z,4.30
2023-05-13T16:34:23.268Z,4.30
2023-05-13T16:34:33.212Z,4.50
2023-05-13T16:34:44.077Z,5.10
2023-05-13T16:34:53.529Z,5.60
2023-05-13T16:35:03.640Z,5.80
2023-05-13T16:35:13.814Z,5.90
2023-05-13T16:35:24.021Z,6.60
2023-05-13T16:35:34.123Z,6.80
2023-05-13T16:35:45.189Z,6.50
2023-05-13T16:35:54.335Z,5.10
2023-05-13T16:36:04.738Z,4.80
2023-05-13T16:36:14.501Z,4.90
2023-05-13T16:36:25.713Z,5.90
2023-05-13T16:36:34.952Z,6.50
2023-05-13T16:36:45.863Z,7.20
2023-05-13T16:36:56.609Z,6.90
2023-05-13T16:37:05.150Z,7.00
2023-05-13T16:37:15.270Z,7.10
2023-05-13T16:37:36.187Z,6.60
2023-05-13T16:37:45.642Z,6.60
2023-05-13T16:37:55.876Z,6.50
2023-05-13T16:38:05.835Z,16.60
2023-05-13T16:38:16.646Z,16.00
2023-05-13T16:38:26.067Z,15.80
2023-05-13T16:38:36.309Z,5.20
2023-05-13T16:38:46.429Z,5.00
2023-05-13T16:38:57.179Z,4.60
2023-05-13T16:39:06.651Z,4.80
2023-05-13T16:39:16.729Z,4.30
2023-05-13T16:39:27.050Z,4.70
2023-05-13T16:39:37.203Z,5.40
2023-05-13T16:39:47.694Z,5.50
2023-05-13T16:39:57.402Z,5.00
2023-05-13T16:40:07.547Z,4.20
2023-05-13T16:40:19.004Z,4.40
2023-05-13T16:40:27.947Z,4.20
2023-05-13T16:40:38.096Z,4.10
2023-05-13T16:40:48.598Z,3.90
2023-05-13T16:40:58.189Z,4.20
2023-05-13T16:41:08.366Z,4.40
2023-05-13T16:41:28.623Z,4.30
2023-05-13T16:41:38.784Z,5.00
2023-05-13T16:41:48.905Z,5.80
2023-05-13T16:41:58.896Z,5.90
2023-05-13T16:42:09.549Z,4.80
2023-05-13T16:42:19.182Z,3.90
2023-05-13T16:42:30.114Z,3.90
2023-05-13T16:42:39.502Z,4.30
2023-05-13T16:42:49.753Z,5.20
2023-05-13T16:43:03.591Z,6.00
2023-05-13T16:43:10.427Z,6.50
2023-05-13T16:43:20.589Z,5.90
2023-05-13T16:43:30.801Z,5.30
2023-05-13T16:43:40.854Z,5.10
2023-05-13T16:43:50.884Z,5.20
2023-05-13T16:44:00.971Z,5.10
2023-05-13T16:44:11.138Z,4.90
2023-05-13T16:44:22.217Z,4.90
2023-05-13T16:44:31.317Z,5.40
2023-05-13T16:44:41.693Z,6.00
2023-05-13T16:44:51.590Z,6.00
2023-05-13T16:45:01.648Z,5.50
2023-05-13T16:45:11.766Z,5.20
2023-05-13T16:45:32.112Z,5.60
2023-05-13T16:45:43.035Z,6.30
2023-05-13T16:45:52.266Z,6.80
2023-05-13T16:46:02.527Z,6.80
2023-05-13T16:46:12.641Z,6.00
2023-05-13T16:46:22.637Z,5.10
2023-05-13T16:46:32.695Z,4.90
2023-05-13T16:46:43.711Z,5.20
2023-05-13T16:46:52.996Z,5.60
2023-05-13T16:47:03.316Z,5.30
2023-05-13T16:47:13.250Z,5.00
2023-05-13T16:47:24.431Z,4.80
2023-05-13T16:47:33.485Z,4.80
2023-05-13T16:47:53.975Z,6.30
2023-05-13T16:48:04.868Z,6.80
2023-05-13T16:48:14.283Z,6.50
2023-05-13T16:48:24.222Z,6.90
2023-05-13T16:48:34.466Z,8.80
2023-05-13T16:48:44.604Z,9.50
2023-05-13T16:48:55.367Z,8.70
2023-05-13T16:49:14.859Z,8.90
2023-05-13T16:49:24.862Z,10.10
2023-05-13T16:49:35.131Z,8.50
2023-05-13T16:49:45.237Z,7.20
2023-05-13T16:49:55.290Z,5.40
2023-05-13T16:50:05.551Z,4.90
2023-05-13T16:50:15.512Z,4.90
2023-05-13T16:50:25.726Z,4.70
2023-05-13T16:50:35.820Z,4.60
2023-05-13T16:50:46.678Z,4.50
2023-05-13T16:50:56.085Z,4.60
2023-05-13T16:51:06.323Z,5.20
2023-05-13T16:51:16.253Z,7.70
2023-05-13T16:51:26.296Z,14.10
2023-05-13T16:51:37.441Z,17.20
2023-05-13T16:51:46.838Z,14.80
2023-05-13T16:51:56.962Z,9.20
2023-05-13T16:52:06.979Z,6.20
2023-05-13T16:52:18.026Z,6.60
2023-05-13T16:52:27.226Z,6.60
2023-05-13T16:52:37.533Z,7.00
2023-05-13T16:52:47.477Z,7.10
2023-05-13T16:52:57.624Z,6.90
2023-05-13T16:53:07.696Z,6.90
2023-05-13T16:53:17.881Z,7.00
2023-05-13T16:53:27.881Z,7.40
2023-05-13T16:53:38.095Z,7.60
2023-05-13T16:55:12.696Z,7.40
2023-05-13T16:55:18.852Z,13.40
2023-05-13T16:55:28.870Z,14.50
2023-05-13T16:55:39.235Z,14.10
2023-05-13T16:55:50.097Z,9.00
2023-05-13T16:55:59.532Z,8.60
2023-05-13T16:56:19.647Z,9.20
2023-05-13T16:56:29.714Z,8.40
2023-05-13T16:56:40.016Z,8.20
2023-05-13T16:56:50.155Z,8.40
2023-05-13T16:57:00.306Z,8.30
2023-05-13T16:57:10.167Z,8.20
2023-05-13T16:57:20.315Z,8.40
2023-05-13T16:57:30.422Z,8.60
2023-05-13T16:57:40.686Z,9.80
2023-05-13T16:57:50.888Z,10.20
2023-05-13T16:58:00.850Z,10.70
2023-05-13T16:58:11.007Z,10.10
2023-05-13T16:58:21.130Z,9.80
2023-05-13T16:58:32.271Z,12.00
2023-05-13T16:58:41.405Z,15.80
2023-05-13T16:58:51.753Z,15.50
2023-05-13T16:59:01.640Z,13.50
2023-05-13T16:59:11.801Z,9.90
2023-05-13T16:59:22.010Z,10.20
2023-05-13T16:59:34.222Z,9.10
2023-05-13T16:59:45.906Z,8.10
2023-05-13T16:59:54.178Z,7.30
2023-05-13T17:00:02.466Z,7.20
2023-05-13T17:00:12.711Z,7.10
2023-05-13T17:00:23.321Z,6.90
2023-05-13T17:00:42.841Z,7.20
2023-05-13T17:00:53.966Z,7.60
2023-05-13T17:01:03.205Z,8.20
2023-05-13T17:01:13.413Z,8.10
2023-05-13T17:01:23.433Z,8.00
2023-05-13T17:01:33.723Z,7.70
2023-05-13T17:01:43.872Z,8.30
2023-05-13T17:01:53.992Z,8.50
2023-05-13T17:02:04.081Z,8.50
2023-05-13T17:02:14.810Z,7.90
2023-05-13T17:02:24.400Z,7.90
2023-05-13T17:02:34.366Z,7.90
2023-05-13T17:02:44.523Z,7.60
2023-05-13T17:02:54.776Z,7.60
2023-05-13T17:03:04.738Z,7.50
2023-05-13T17:03:16.075Z,7.60
2023-05-13T17:03:25.139Z,7.50
2023-05-13T17:04:11.034Z,6.70
2023-05-13T17:04:16.965Z,6.00
2023-05-13T17:04:28.249Z,5.70
2023-05-13T17:04:37.292Z,6.00
2023-05-13T17:04:47.225Z,5.80
2023-05-13T17:04:57.387Z,5.90
2023-05-13T17:05:17.829Z,9.00
2023-05-13T17:05:27.819Z,10.00
2023-05-13T17:05:37.908Z,9.60
2023-05-13T17:05:48.169Z,8.30
2023-05-13T17:05:58.201Z,6.90
2023-05-13T17:06:08.364Z,6.70
2023-05-13T17:06:18.451Z,6.90
2023-05-13T17:06:28.588Z,8.00
2023-05-13T17:06:38.885Z,8.70
2023-05-13T17:06:49.021Z,8.90
2023-05-13T17:06:59.686Z,8.10
2023-05-13T17:07:09.213Z,6.30
2023-05-13T17:07:19.248Z,28.60
2023-05-13T17:07:29.865Z,29.90
2023-05-13T17:07:39.427Z,29.60
2023-05-13T17:07:49.542Z,6.10
2023-05-13T17:07:59.695Z,5.80
2023-05-13T17:08:09.814Z,5.40
2023-05-13T17:08:20.523Z,5.50
2023-05-13T17:08:29.968Z,5.80
2023-05-13T17:08:40.205Z,6.50
2023-05-13T17:08:50.272Z,6.70
2023-05-13T17:09:00.370Z,7.10
2023-05-13T17:09:10.764Z,7.00
2023-05-13T17:09:30.785Z,7.60
2023-05-13T17:09:40.802Z,9.20
2023-05-13T17:09:51.073Z,10.60
2023-05-13T17:10:00.918Z,9.70
2023-05-13T17:10:11.360Z,7.40
2023-05-13T17:10:22.268Z,6.10
2023-05-13T17:10:31.436Z,5.60
2023-05-13T17:10:41.679Z,5.50
2023-05-13T17:10:51.761Z,5.50
2023-05-13T17:11:01.750Z,5.50
2023-05-13T17:11:11.950Z,5.60
2023-05-13T17:11:22.485Z,5.30
2023-05-13T17:11:32.265Z,5.40
2023-05-13T17:11:42.408Z,5.50
2023-05-13T17:11:52.528Z,5.60
2023-05-13T17:12:02.650Z,6.00
2023-05-13T17:12:12.653Z,6.00
2023-05-13T17:12:22.994Z,5.80
2023-05-13T17:12:36.453Z,5.30
2023-05-13T17:12:43.378Z,5.60
2023-05-13T17:12:53.175Z,6.20
2023-05-13T17:13:03.980Z,7.00
2023-05-13T17:13:13.523Z,7.20
2023-05-13T17:13:23.552Z,6.80
2023-05-13T17:13:43.825Z,6.60
2023-05-13T17:13:54.104Z,6.50
2023-05-13T17:14:04.594Z,6.40
2023-05-13T17:14:13.970Z,6.50
2023-05-13T17:14:24.160Z,6.60
2023-05-13T17:14:34.429Z,6.80
2023-05-13T17:14:44.701Z,6.60
2023-05-13T17:14:55.573Z,6.50
2023-05-13T17:15:04.708Z,6.60
2023-05-13T17:15:14.867Z,6.10
2023-05-13T17:15:25.056Z,6.00
2023-05-13T17:15:35.776Z,5.80
2023-05-13T17:15:45.224Z,6.00
2023-05-13T17:16:05.617Z,6.00
2023-05-13T17:16:15.537Z,6.30
2023-05-13T17:16:25.632Z,6.00
2023-05-13T17:16:35.902Z,6.40
2023-05-13T17:16:46.787Z,6.10
2023-05-13T17:16:56.096Z,6.20
2023-05-13T17:17:06.486Z,6.00
2023-05-13T17:17:16.376Z,6.10
2023-05-13T17:17:26.625Z,6.00
2023-05-13T17:17:36.632Z,6.40
2023-05-13T17:17:47.420Z,6.70
2023-05-13T17:17:56.950Z,6.90
2023-05-13T17:18:06.973Z,6.80
2023-05-13T17:18:17.930Z,7.00
